Time;durP1;ratioP1;P1;durP2;ratioP2;P2;SDS_P1;SDS_P2;PMS_P1;PMS_P2;Temp;Humidity;BMP_temperature;BMP_pressure;BME280_temperature;BME280_humidity;BME280_pressure;Samples;Min_cycle;Max_cycle;Signal;HPM_P1;HPM_P2
2021/12/08 00:02:00;;;;;;;11.00;8.55;;;22.80;59.60;;;;;;31689739;28;20066;-34
2021/12/08 00:17:04;;;;;;;8.20;5.30;;;22.70;60.10;;;;;;31683872;28;20059;-35
2021/12/08 00:32:08;;;;;;;4.53;3.33;;;22.70;60.30;;;;;;31627273;28;20494;-35
2021/12/08 00:47:11;;;;;;;2.05;1.80;;;22.80;60.20;;;;;;31623648;28;20036;-35
2021/12/08 01:02:13;;;;;;;1.73;1.58;;;23.20;60.20;;;;;;31626289;28;20108;-35
2021/12/08 01:17:15;;;;;;;0.70;0.70;;;23.20;60.30;;;;;;31591296;28;20124;-35
2021/12/08 01:32:19;;;;;;;0.52;0.50;;;23.10;60.50;;;;;;31562005;28;20514;-36
2021/12/08 01:47:22;;;;;;;0.50;0.50;;;23.00;60.70;;;;;;31680204;28;20049;-36
2021/12/08 02:02:24;;;;;;;0.40;0.40;;;22.90;60.70;;;;;;31543362;28;20120;-35
2021/12/08 02:17:26;;;;;;;0.20;0.20;;;22.80;60.70;;;;;;31645812;28;20049;-35
2021/12/08 02:46:39;;;;;;;0.47;0.47;;;22.70;61.10;;;;;;31605787;28;20072;-43
2021/12/08 03:02:55;;;;;;;0.60;0.30;;;23.30;62.30;;;;;;31640651;28;20094;-44
2021/12/08 03:17:57;;;;;;;0.20;0.20;;;23.10;61.90;;;;;;31639475;28;20041;-42
2021/12/08 03:32:59;;;;;;;0.10;0.10;;;23.00;62.30;;;;;;31571344;28;20108;-45
2021/12/08 03:48:06;;;;;;;0.10;0.10;;;22.90;62.10;;;;;;31622523;28;20102;-43
2021/12/08 04:03:08;;;;;;;0.00;0.00;;;22.90;61.90;;;;;;31581638;28;20088;-36
2021/12/08 04:18:11;;;;;;;0.10;0.10;;;22.80;61.80;;;;;;31617000;28;20052;-36
2021/12/08 04:33:13;;;;;;;0.10;0.10;;;22.90;62.50;;;;;;31595362;28;20116;-36
2021/12/08 05:04:07;;;;;;;0.10;0.10;;;23.20;61.70;;;;;;31610770;28;20052;-35
2021/12/08 05:19:14;;;;;;;0.00;0.00;;;23.00;62.00;;;;;;31593644;28;20048;-35
2021/12/08 05:34:17;;;;;;;0.13;0.13;;;22.90;62.00;;;;;;31599638;28;20056;-40
2021/12/08 05:49:20;;;;;;;0.10;0.10;;;22.80;62.10;;;;;;31576156;28;20041;-44
2021/12/08 06:04:25;;;;;;;4.57;0.68;;;22.70;62.20;;;;;;31575270;28;20090;-46
2021/12/08 06:19:27;;;;;;;9.15;7.13;;;23.00;61.20;;;;;;31657178;28;20190;-44
2021/12/08 06:34:31;;;;;;;11.10;5.50;;;23.00;58.80;;;;;;31583263;28;20205;-44
2021/12/08 06:49:33;;;;;;;5.28;4.30;;;22.80;55.60;;;;;;31605126;28;20059;-49
2021/12/08 07:20:33;;;;;;;8.80;4.38;;;22.50;54.30;;;;;;31618158;28;20059;-48
2021/12/08 07:35:43;;;;;;;6.32;3.75;;;22.70;56.20;;;;;;31684604;28;20092;-46
2021/12/08 07:50:53;;;;;;;51.92;41.42;;;23.10;56.60;;;;;;31572043;28;20033;-53
2021/12/08 08:05:55;;;;;;;;;;;23.10;56.40;;;;;;31595274;28;20047;-45
2021/12/08 08:21:00;;;;;;;13.48;11.60;;;22.90;55.70;;;;;;31665554;28;19956;-57
2021/12/08 08:36:10;;;;;;;17.13;12.15;;;22.70;55.80;;;;;;31248284;28;10000319;-55
2021/12/08 08:51:35;;;;;;;16.17;9.27;;;22.60;55.90;;;;;;31574289;28;20053;-47
2021/12/08 09:06:43;;;;;;;20.88;17.80;;;22.50;56.30;;;;;;31601620;28;20070;-58
2021/12/08 09:22:12;;;;;;;19.25;15.68;;;22.70;55.80;;;;;;31522976;28;20131;-56
2021/12/08 09:37:25;;;;;;;15.82;13.52;;;22.90;55.10;;;;;;31547005;28;20055;-49
2021/12/08 09:52:28;;;;;;;13.48;12.07;;;22.90;55.20;;;;;;31583906;28;20036;-48
2021/12/08 10:07:30;;;;;;;19.27;10.90;;;22.80;54.10;;;;;;31621156;28;20112;-46
2021/12/08 10:22:32;;;;;;;15.50;10.90;;;22.70;55.00;;;;;;31640108;28;20073;-44
2021/12/08 10:37:34;;;;;;;23.30;16.67;;;22.50;55.50;;;;;;31621720;28;20048;-45
2021/12/08 11:08:19;;;;;;;12.93;11.57;;;22.90;53.70;;;;;;31274128;28;10000746;-49
2021/12/08 11:23:40;;;;;;;12.18;10.38;;;23.00;53.90;;;;;;31587251;28;20121;-40
2021/12/08 11:38:44;;;;;;;12.88;10.07;;;22.90;54.40;;;;;;31646703;28;20520;-48
2021/12/08 11:53:47;;;;;;;15.27;8.88;;;22.90;54.80;;;;;;31580668;28;20043;-45
2021/12/08 12:08:49;;;;;;;10.10;8.30;;;22.70;54.50;;;;;;31603416;28;20037;-55
2021/12/08 12:24:16;;;;;;;9.40;8.18;;;22.70;55.60;;;;;;31664321;28;20068;-36
2021/12/08 12:39:24;;;;;;;8.60;7.70;;;22.70;56.00;;;;;;31681058;28;20119;-36
2021/12/08 12:54:27;;;;;;;7.60;6.80;;;22.70;56.10;;;;;;31661102;28;20048;-36
2021/12/08 13:09:48;;;;;;;7.07;6.32;;;23.10;56.10;;;;;;31673677;28;20044;-37
2021/12/08 13:24:54;;;;;;;7.63;6.20;;;23.30;56.20;;;;;;31689742;28;20058;-43
2021/12/08 13:40:39;;;;;;;8.70;5.53;;;23.20;56.60;;;;;;31590477;28;20037;-44
2021/12/08 13:55:59;;;;;;;6.07;5.38;;;23.00;56.40;;;;;;31600259;28;20040;-46
2021/12/08 14:11:06;;;;;;;6.47;5.07;;;22.90;56.20;;;;;;31563592;28;20100;-49
2021/12/08 14:26:15;;;;;;;7.05;5.30;;;22.70;56.50;;;;;;31623413;28;20045;-37
2021/12/08 14:41:29;;;;;;;6.60;4.63;;;22.90;56.40;;;;;;31663989;28;20048;-37
2021/12/08 14:56:33;;;;;;;4.63;3.90;;;23.20;55.90;;;;;;31668087;28;20064;-38
2021/12/08 15:11:40;;;;;;;5.03;4.35;;;23.20;56.10;;;;;;31606725;28;20044;-37
2021/12/08 15:26:43;;;;;;;7.45;4.63;;;23.00;56.30;;;;;;31620348;28;20056;-39
2021/12/08 15:41:46;;;;;;;4.78;3.75;;;22.90;56.50;;;;;;31629248;28;20048;-39
2021/12/08 15:56:51;;;;;;;4.85;3.22;;;22.70;56.70;;;;;;31594098;28;20070;-40
2021/12/08 16:12:07;;;;;;;6.68;3.83;;;23.00;56.40;;;;;;31621781;28;20096;-42
2021/12/08 16:27:20;;;;;;;5.28;3.50;;;23.10;56.30;;;;;;31619285;28;20098;-39
2021/12/08 16:57:50;;;;;;;4.60;3.30;;;23.00;57.00;;;;;;31553718;28;20045;-38
2021/12/08 17:12:52;;;;;;;4.18;3.25;;;22.90;57.30;;;;;;31570673;28;20123;-43
2021/12/08 17:27:54;;;;;;;3.95;3.33;;;22.90;57.30;;;;;;31588965;28;20132;-41
2021/12/08 17:42:57;;;;;;;17.88;6.85;;;22.70;57.30;;;;;;31613550;28;20075;-57
2021/12/08 17:57:59;;;;;;;18.33;6.65;;;22.60;57.80;;;;;;31628705;28;20044;-53
2021/12/08 18:13:01;;;;;;;13.80;6.55;;;22.60;58.60;;;;;;31666174;28;20060;-45
2021/12/08 18:28:10;;;;;;;13.30;5.95;;;23.00;58.50;;;;;;31216783;28;10000435;-45
2021/12/08 18:43:12;;;;;;;13.02;5.57;;;23.20;58.30;;;;;;31561569;28;20067;-47
2021/12/08 18:58:15;;;;;;;13.00;4.50;;;23.20;58.60;;;;;;31602490;28;20134;-48
2021/12/08 19:13:17;;;;;;;13.57;4.47;;;23.10;58.40;;;;;;31578583;28;20060;-54
2021/12/08 19:28:23;;;;;;;10.48;4.55;;;23.00;59.20;;;;;;31670609;28;20056;-50
2021/12/08 19:43:25;;;;;;;8.90;4.00;;;22.90;59.50;;;;;;31670479;28;20040;-44
2021/12/08 19:58:27;;;;;;;6.38;3.75;;;22.80;59.50;;;;;;31687258;28;20044;-36
2021/12/08 20:13:30;;;;;;;6.38;3.30;;;22.80;59.40;;;;;;31650770;28;20036;-36
2021/12/08 20:28:32;;;;;;;4.97;3.38;;;22.70;59.50;;;;;;31659100;28;20040;-35
2021/12/08 20:43:36;;;;;;;5.72;3.10;;;22.90;59.50;;;;;;31687298;28;20039;-35
2021/12/08 20:58:42;;;;;;;4.03;2.80;;;23.30;58.90;;;;;;31581724;28;20053;-36
2021/12/08 21:13:44;;;;;;;6.00;2.88;;;23.30;58.80;;;;;;31230097;28;10000883;-36
2021/12/08 21:28:49;;;;;;;6.93;2.88;;;23.10;59.10;;;;;;31406533;28;20077;-35
2021/12/08 21:43:53;;;;;;;2.63;2.03;;;23.10;59.30;;;;;;31365084;28;20109;-35
2021/12/08 21:58:56;;;;;;;3.70;2.38;;;23.00;59.50;;;;;;31471587;28;20064;-35
2021/12/08 22:13:59;;;;;;;15.30;11.43;;;22.90;59.90;;;;;;31628223;28;20048;-37
2021/12/08 22:29:01;;;;;;;10.23;6.82;;;22.80;59.80;;;;;;31544999;28;20091;-37
2021/12/08 22:44:04;;;;;;;5.63;4.20;;;23.10;59.40;;;;;;31614541;28;20056;-40
2021/12/08 22:59:07;;;;;;;3.05;2.70;;;23.40;59.20;;;;;;31588209;28;20104;-38
2021/12/08 23:14:10;;;;;;;1.92;1.63;;;23.30;59.80;;;;;;31544244;28;20073;-37
2021/12/08 23:29:14;;;;;;;1.42;1.33;;;23.30;60.10;;;;;;31565042;28;20578;-37
2021/12/08 23:44:16;;;;;;;0.60;0.60;;;23.20;60.10;;;;;;31639640;28;20068;-37
2021/12/08 23:59:20;;;;;;;0.50;0.50;;;23.10;60.50;;;;;;31547582;28;20041;-35
